Time;durP1;ratioP1;P1;durP2;ratioP2;P2;SDS_P1;SDS_P2;PMS_P1;PMS_P2;Temp;Humidity;BMP_temperature;BMP_pressure;BME280_temperature;BME280_humidity;BME280_pressure;Samples;Min_cycle;Max_cycle;Signal;HPM_P1;HPM_P2
2024/01/20 00:01:38;;;;;;;67.40;32.87;;;0.10;99.90;;;;;;5022482;28;39376;-77
2024/01/20 00:04:04;;;;;;;60.20;33.10;;;0.10;99.90;;;;;;5037365;28;39606;-78
2024/01/20 00:06:31;;;;;;;65.20;33.27;;;0.00;99.90;;;;;;5038805;28;38013;-77
2024/01/20 00:08:57;;;;;;;62.40;32.63;;;0.10;99.90;;;;;;5025534;28;37811;-77
2024/01/20 00:11:23;;;;;;;60.97;33.77;;;0.10;99.90;;;;;;5028350;28;39251;-77
2024/01/20 00:13:49;;;;;;;70.40;35.17;;;0.00;99.90;;;;;;5034068;28;37400;-77
2024/01/20 00:16:15;;;;;;;64.90;34.33;;;0.00;99.90;;;;;;5038462;28;38922;-76
2024/01/20 00:18:42;;;;;;;69.67;35.83;;;0.00;99.90;;;;;;5029330;28;38177;-78
2024/01/20 00:21:08;;;;;;;67.00;35.43;;;0.00;99.90;;;;;;5046217;28;38929;-77
2024/01/20 00:23:34;;;;;;;67.77;32.93;;;0.00;99.90;;;;;;5025183;28;39254;-77
2024/01/20 00:26:00;;;;;;;72.20;36.83;;;-0.10;99.90;;;;;;5028092;28;38679;-77
2024/01/20 00:28:27;;;;;;;72.83;35.27;;;-0.10;99.90;;;;;;5037753;28;47542;-77
2024/01/20 00:30:53;;;;;;;75.27;36.57;;;-0.10;99.90;;;;;;5030558;28;39110;-77
2024/01/20 00:33:19;;;;;;;73.43;36.90;;;-0.10;99.90;;;;;;5029001;28;39122;-77
2024/01/20 00:35:45;;;;;;;70.67;34.20;;;-0.10;99.90;;;;;;5039677;28;38049;-77
2024/01/20 00:38:11;;;;;;;77.53;35.83;;;-0.10;99.90;;;;;;5026689;28;37746;-77
2024/01/20 00:40:38;;;;;;;85.53;37.53;;;-0.10;99.90;;;;;;5023778;28;39677;-78
2024/01/20 00:43:04;;;;;;;80.17;37.80;;;-0.10;99.90;;;;;;5032530;28;40103;-77
2024/01/20 00:45:30;;;;;;;73.73;35.77;;;-0.10;99.90;;;;;;5051017;28;38065;-77
2024/01/20 00:47:56;;;;;;;73.20;34.77;;;-0.20;99.90;;;;;;5027411;28;36571;-77
2024/01/20 00:50:23;;;;;;;68.40;35.90;;;-0.20;99.90;;;;;;5023768;28;37770;-77
2024/01/20 00:52:49;;;;;;;65.73;33.13;;;-0.30;99.90;;;;;;5045697;28;39441;-78
2024/01/20 00:55:15;;;;;;;75.80;34.23;;;-0.30;99.90;;;;;;5032229;28;39525;-78
2024/01/20 00:57:42;;;;;;;71.53;35.30;;;-0.30;99.90;;;;;;5042156;28;38986;-77
2024/01/20 01:00:10;;;;;;;83.23;37.93;;;-0.30;99.90;;;;;;5031423;28;39695;-78
2024/01/20 01:02:38;;;;;;;71.57;35.10;;;-0.20;99.90;;;;;;5047569;28;39002;-77
2024/01/20 01:05:05;;;;;;;77.60;36.87;;;-0.30;99.90;;;;;;5039998;28;38349;-78
2024/01/20 01:07:35;;;;;;;73.73;35.80;;;-0.30;99.90;;;;;;5033434;28;36341;-77
2024/01/20 01:10:03;;;;;;;79.23;37.87;;;-0.30;99.90;;;;;;5037374;28;40039;-77
2024/01/20 01:12:30;;;;;;;86.73;37.73;;;-0.30;99.90;;;;;;5042738;28;39028;-77
2024/01/20 01:14:56;;;;;;;80.60;37.30;;;-0.30;99.90;;;;;;5036066;28;37198;-77
2024/01/20 01:17:22;;;;;;;88.53;38.73;;;-0.40;99.90;;;;;;5036602;28;36496;-77
2024/01/20 01:19:49;;;;;;;81.73;37.47;;;-0.40;99.90;;;;;;5038837;28;40269;-78
2024/01/20 01:22:15;;;;;;;98.60;39.77;;;-0.40;99.90;;;;;;5034791;28;37261;-77
2024/01/20 01:24:41;;;;;;;83.17;40.07;;;-0.40;99.90;;;;;;5052626;28;39106;-76
2024/01/20 01:27:07;;;;;;;78.53;37.53;;;-0.40;99.90;;;;;;5053196;28;37698;-78
2024/01/20 01:29:34;;;;;;;85.17;40.40;;;-0.50;99.90;;;;;;5033927;28;39101;-78
2024/01/20 01:32:00;;;;;;;92.63;40.40;;;-0.50;99.90;;;;;;5026458;28;38799;-77
2024/01/20 01:34:26;;;;;;;92.33;39.53;;;-0.50;99.90;;;;;;5051189;28;37284;-78
2024/01/20 01:36:52;;;;;;;95.80;40.53;;;-0.50;99.90;;;;;;5037262;28;38124;-77
2024/01/20 01:39:20;;;;;;;95.53;41.93;;;-0.50;99.90;;;;;;5031575;28;39561;-77
2024/01/20 01:41:46;;;;;;;95.10;42.60;;;-0.50;99.90;;;;;;5044887;28;39584;-78
2024/01/20 01:44:13;;;;;;;86.13;39.77;;;-0.50;99.90;;;;;;5022636;28;39787;-78
2024/01/20 01:46:40;;;;;;;102.17;41.67;;;-0.50;99.90;;;;;;5030481;28;37365;-78
2024/01/20 01:49:07;;;;;;;98.47;42.63;;;-0.40;99.90;;;;;;5030841;28;40083;-76
2024/01/20 01:51:33;;;;;;;85.97;39.17;;;-0.50;99.90;;;;;;5028369;28;37533;-78
2024/01/20 01:54:01;;;;;;;101.27;39.80;;;-0.50;99.90;;;;;;5043876;28;39107;-78
2024/01/20 01:56:29;;;;;;;99.67;42.27;;;-0.50;99.90;;;;;;5031966;28;47232;-77
2024/01/20 01:58:56;;;;;;;94.40;42.20;;;-0.50;99.90;;;;;;5034114;28;37664;-78
2024/01/20 02:03:54;;;;;;;96.45;41.05;;;-0.50;99.90;;;;;;4987741;28;20050;-76
2024/01/20 02:06:21;;;;;;;95.93;40.40;;;-0.50;99.90;;;;;;5006418;28;37116;-78
2024/01/20 02:08:47;;;;;;;91.43;39.77;;;-0.50;99.90;;;;;;4988703;28;39465;-78
2024/01/20 02:11:14;;;;;;;87.23;39.10;;;-0.50;99.90;;;;;;5009627;28;37094;-78
2024/01/20 02:13:41;;;;;;;90.60;40.70;;;-0.50;99.90;;;;;;4989905;28;38116;-78
2024/01/20 02:16:07;;;;;;;97.60;39.97;;;-0.60;99.90;;;;;;4992539;28;36456;-78
2024/01/20 02:18:33;;;;;;;96.73;42.07;;;-0.50;99.90;;;;;;5014209;28;38208;-78
2024/01/20 02:20:59;;;;;;;98.17;42.83;;;-0.50;99.90;;;;;;5004498;28;37857;-78
2024/01/20 02:23:25;;;;;;;83.50;37.07;;;-0.50;99.90;;;;;;4989904;28;38063;-77
2024/01/20 02:25:51;;;;;;;97.67;39.50;;;-0.50;99.90;;;;;;5008032;28;36722;-78
2024/01/20 02:28:17;;;;;;;89.63;39.23;;;-0.50;99.90;;;;;;5001933;28;37561;-78
2024/01/20 02:30:46;;;;;;;93.83;40.27;;;-0.50;99.90;;;;;;4992708;28;37625;-78
2024/01/20 02:33:13;;;;;;;90.50;39.10;;;-0.50;99.90;;;;;;5011795;28;39204;-77
2024/01/20 02:35:39;;;;;;;99.30;41.67;;;-0.50;99.90;;;;;;5003814;28;37610;-78
2024/01/20 02:38:05;;;;;;;94.87;40.10;;;-0.50;99.90;;;;;;5010681;28;39670;-78
2024/01/20 02:40:31;;;;;;;106.63;44.57;;;-0.50;99.90;;;;;;5004929;28;37768;-77
2024/01/20 02:42:57;;;;;;;98.37;40.97;;;-0.50;99.90;;;;;;4997277;28;37145;-78
2024/01/20 02:45:23;;;;;;;84.50;37.40;;;-0.50;99.90;;;;;;5012181;28;37521;-78
2024/01/20 02:47:51;;;;;;;97.07;39.40;;;-0.50;99.90;;;;;;5008279;28;38575;-78
2024/01/20 02:50:17;;;;;;;87.57;38.23;;;-0.50;99.90;;;;;;5008659;28;37486;-77
2024/01/20 02:52:43;;;;;;;86.13;36.87;;;-0.50;99.90;;;;;;5010795;28;38092;-78
2024/01/20 02:55:09;;;;;;;99.63;40.17;;;-0.50;99.90;;;;;;5008139;28;37324;-78
2024/01/20 02:57:35;;;;;;;79.03;36.70;;;-0.50;99.90;;;;;;5007921;28;37516;-78
2024/01/20 03:00:02;;;;;;;89.97;37.13;;;-0.40;99.90;;;;;;4989692;28;38395;-78
2024/01/20 03:02:28;;;;;;;84.47;37.87;;;-0.50;99.90;;;;;;5015247;28;37838;-77
2024/01/20 03:04:55;;;;;;;87.50;36.60;;;-0.50;99.90;;;;;;4989207;28;37231;-78
2024/01/20 03:07:21;;;;;;;81.03;35.20;;;-0.50;99.90;;;;;;4993602;28;38879;-78
2024/01/20 03:09:47;;;;;;;87.80;35.77;;;-0.50;99.90;;;;;;4995266;28;37849;-77
2024/01/20 03:12:16;;;;;;;95.90;41.33;;;-0.50;99.90;;;;;;4991868;28;36909;-77
2024/01/20 03:14:42;;;;;;;102.50;42.67;;;-0.50;99.90;;;;;;5007489;28;36718;-77
2024/01/20 03:17:08;;;;;;;93.97;42.67;;;-0.50;99.90;;;;;;4992453;28;38201;-77
2024/01/20 03:19:34;;;;;;;92.40;42.60;;;-0.50;99.90;;;;;;5010032;28;39175;-76
2024/01/20 03:22:00;;;;;;;87.63;41.50;;;-0.50;99.90;;;;;;5005878;28;37705;-77
2024/01/20 03:24:26;;;;;;;92.13;43.67;;;-0.50;99.90;;;;;;4987548;28;36970;-77
2024/01/20 03:26:54;;;;;;;88.93;39.80;;;-0.50;99.90;;;;;;5021369;28;39396;-77
2024/01/20 03:29:21;;;;;;;84.23;38.53;;;-0.50;99.90;;;;;;5006808;28;37644;-77
2024/01/20 03:31:47;;;;;;;85.03;37.30;;;-0.50;99.90;;;;;;5019894;28;38754;-76
2024/01/20 03:34:13;;;;;;;87.67;37.20;;;-0.50;99.90;;;;;;5001407;28;36506;-77
2024/01/20 03:36:39;;;;;;;85.57;35.40;;;-0.50;99.90;;;;;;5006815;28;39000;-76
2024/01/20 03:39:05;;;;;;;67.67;32.57;;;-0.50;99.90;;;;;;5021999;28;37396;-77
2024/01/20 03:41:31;;;;;;;77.93;32.23;;;-0.50;99.90;;;;;;5006879;28;39133;-76
2024/01/20 03:43:58;;;;;;;81.00;34.87;;;-0.50;99.90;;;;;;5015348;28;37376;-77
2024/01/20 03:46:24;;;;;;;82.87;33.00;;;-0.50;99.90;;;;;;5006892;28;38481;-77
2024/01/20 03:48:50;;;;;;;82.80;33.77;;;-0.60;99.90;;;;;;5023086;28;38886;-77
2024/01/20 03:51:16;;;;;;;78.57;35.10;;;-0.60;99.90;;;;;;4998629;28;36845;-77
2024/01/20 03:53:42;;;;;;;85.57;34.43;;;-0.50;99.90;;;;;;5018123;28;38203;-77
2024/01/20 03:56:08;;;;;;;78.23;32.37;;;-0.50;99.90;;;;;;5002037;28;37959;-77
2024/01/20 03:58:36;;;;;;;80.47;32.87;;;-0.50;99.90;;;;;;5030653;28;38819;-76
2024/01/20 04:01:02;;;;;;;79.33;32.87;;;-0.50;99.90;;;;;;5011041;28;39763;-78
2024/01/20 04:03:28;;;;;;;66.83;30.57;;;-0.50;99.90;;;;;;4992833;28;36081;-77
2024/01/20 04:05:54;;;;;;;81.90;33.23;;;-0.50;99.90;;;;;;5007242;28;39537;-77
2024/01/20 04:08:20;;;;;;;80.23;33.23;;;-0.50;99.90;;;;;;5000258;28;38215;-77
2024/01/20 04:10:47;;;;;;;76.70;32.80;;;-0.50;99.90;;;;;;5012592;28;40304;-77
2024/01/20 04:13:13;;;;;;;73.57;33.27;;;-0.50;99.90;;;;;;5012561;28;37289;-77
2024/01/20 04:15:39;;;;;;;70.73;31.60;;;-0.40;99.90;;;;;;5001246;28;39182;-77
2024/01/20 04:18:05;;;;;;;73.33;31.90;;;-0.40;99.90;;;;;;4995154;28;37542;-76
2024/01/20 04:20:31;;;;;;;79.57;32.40;;;-0.40;99.90;;;;;;4998856;28;38779;-76
2024/01/20 04:22:57;;;;;;;75.10;31.40;;;-0.50;99.90;;;;;;5004995;28;36899;-77
2024/01/20 04:25:24;;;;;;;69.50;30.73;;;-0.50;99.90;;;;;;5004025;28;38585;-77
2024/01/20 04:27:51;;;;;;;87.63;32.80;;;-0.50;99.90;;;;;;5006276;28;37342;-77
2024/01/20 04:30:17;;;;;;;70.20;30.90;;;-0.50;99.90;;;;;;4989267;28;38718;-77
2024/01/20 04:32:43;;;;;;;84.90;33.63;;;-0.50;99.90;;;;;;5010075;28;36304;-77
2024/01/20 04:35:09;;;;;;;85.37;33.50;;;-0.50;99.90;;;;;;5009086;28;39291;-78
2024/01/20 04:37:36;;;;;;;77.97;32.70;;;-0.60;99.90;;;;;;5008395;28;39701;-77
2024/01/20 04:40:03;;;;;;;79.13;34.07;;;-0.60;99.90;;;;;;5000660;28;37619;-77
2024/01/20 04:42:29;;;;;;;80.50;32.37;;;-0.70;99.90;;;;;;5001759;28;36415;-78
2024/01/20 04:44:55;;;;;;;80.87;31.73;;;-0.60;99.90;;;;;;4991570;28;38024;-77
2024/01/20 04:47:22;;;;;;;81.73;32.93;;;-0.60;99.90;;;;;;5011098;28;38305;-78
2024/01/20 04:49:51;;;;;;;91.80;35.10;;;-0.60;99.90;;;;;;5007293;28;37231;-78
2024/01/20 04:52:19;;;;;;;80.90;32.93;;;-0.70;99.90;;;;;;4995633;28;36521;-78
2024/01/20 04:54:45;;;;;;;81.43;32.87;;;-0.70;99.90;;;;;;5014857;28;38077;-76
2024/01/20 04:57:12;;;;;;;82.77;32.07;;;-0.70;99.90;;;;;;5010517;28;37371;-77
2024/01/20 04:59:38;;;;;;;77.90;29.70;;;-0.70;99.90;;;;;;5016794;28;38915;-77
2024/01/20 05:02:04;;;;;;;78.87;30.77;;;-0.70;99.90;;;;;;5016827;28;37376;-77
2024/01/20 05:04:35;;;;;;;72.07;29.87;;;-0.70;99.90;;;;;;5018837;28;36269;-77
2024/01/20 05:07:01;;;;;;;71.20;29.63;;;-0.70;99.90;;;;;;4991922;28;36929;-78
2024/01/20 05:09:27;;;;;;;84.17;30.53;;;-0.70;99.90;;;;;;5015300;28;49011;-78
2024/01/20 05:11:53;;;;;;;73.43;29.70;;;-0.70;99.90;;;;;;4992804;28;37048;-77
2024/01/20 05:14:19;;;;;;;76.57;28.83;;;-0.70;99.90;;;;;;5013258;28;38715;-77
2024/01/20 05:16:45;;;;;;;80.63;32.03;;;-0.60;99.90;;;;;;4990137;28;38867;-78
2024/01/20 05:19:12;;;;;;;82.33;31.77;;;-0.60;99.90;;;;;;5000700;28;36928;-77
2024/01/20 05:21:38;;;;;;;87.30;32.97;;;-0.70;99.90;;;;;;4996549;28;37750;-78
2024/01/20 05:24:05;;;;;;;83.67;29.87;;;-0.60;99.90;;;;;;4999702;28;39051;-78
2024/01/20 05:26:31;;;;;;;71.50;29.20;;;-0.60;99.90;;;;;;5001242;28;38873;-77
2024/01/20 05:28:57;;;;;;;73.30;29.90;;;-0.60;99.90;;;;;;4987250;28;38432;-78
2024/01/20 05:31:24;;;;;;;72.33;30.53;;;-0.60;99.90;;;;;;4985900;28;36907;-77
2024/01/20 05:33:51;;;;;;;73.57;28.13;;;-0.60;99.90;;;;;;4987841;28;38957;-77
2024/01/20 05:36:17;;;;;;;78.67;30.13;;;-0.60;99.90;;;;;;5002184;28;38362;-77
2024/01/20 05:38:44;;;;;;;69.30;28.63;;;-0.60;99.90;;;;;;5004507;28;37792;-78
2024/01/20 05:41:10;;;;;;;74.50;30.23;;;-0.60;99.90;;;;;;5010050;28;37351;-77
2024/01/20 05:43:36;;;;;;;65.23;28.77;;;-0.60;99.90;;;;;;4990032;28;39192;-78
2024/01/20 05:46:06;;;;;;;76.63;30.10;;;-0.60;99.90;;;;;;5005076;28;39868;-78
2024/01/20 05:48:36;;;;;;;71.37;31.43;;;-0.60;99.90;;;;;;5003999;28;37083;-77
2024/01/20 05:51:02;;;;;;;73.17;29.40;;;-0.60;99.90;;;;;;5005612;28;37483;-78
2024/01/20 05:53:28;;;;;;;81.83;30.93;;;-0.60;99.90;;;;;;5003275;28;37626;-77
2024/01/20 05:55:55;;;;;;;76.40;30.10;;;-0.50;99.90;;;;;;5005752;28;38766;-77
2024/01/20 05:58:21;;;;;;;73.60;29.47;;;-0.60;99.90;;;;;;5006289;28;38159;-77
2024/01/20 06:00:47;;;;;;;63.83;28.10;;;-0.60;99.90;;;;;;4995095;28;36447;-78
2024/01/20 06:03:13;;;;;;;67.83;28.13;;;-0.60;99.90;;;;;;4997210;28;38848;-77
2024/01/20 06:05:39;;;;;;;74.70;31.43;;;-0.60;99.90;;;;;;5003280;28;36990;-77
2024/01/20 06:08:06;;;;;;;67.23;27.63;;;-0.60;99.90;;;;;;5006777;28;38018;-77
2024/01/20 06:10:32;;;;;;;75.07;29.70;;;-0.60;99.90;;;;;;5005785;28;37943;-77
2024/01/20 06:12:58;;;;;;;68.43;27.23;;;-0.70;99.90;;;;;;4986064;28;37938;-77
2024/01/20 06:15:24;;;;;;;70.67;29.17;;;-0.70;99.90;;;;;;5001511;28;37547;-77
2024/01/20 06:17:50;;;;;;;68.73;27.33;;;-0.70;99.90;;;;;;5001782;28;38107;-77
2024/01/20 06:20:16;;;;;;;68.17;28.67;;;-0.70;99.90;;;;;;5003375;28;37315;-77
2024/01/20 06:22:43;;;;;;;77.47;29.53;;;-0.80;99.90;;;;;;4995074;28;37822;-77
2024/01/20 06:25:10;;;;;;;80.13;30.57;;;-0.80;99.90;;;;;;5008798;28;38310;-77
2024/01/20 06:27:36;;;;;;;71.03;30.33;;;-0.80;99.90;;;;;;4993371;28;38387;-78
2024/01/20 06:30:03;;;;;;;72.63;28.97;;;-0.80;99.90;;;;;;5004956;28;37112;-78
2024/01/20 06:32:29;;;;;;;74.53;30.10;;;-0.70;99.90;;;;;;4983196;28;46796;-78
2024/01/20 06:34:56;;;;;;;80.70;32.07;;;-0.70;99.90;;;;;;4994447;28;37473;-78
2024/01/20 06:37:22;;;;;;;80.73;31.93;;;-0.70;99.90;;;;;;4984980;28;38274;-78
2024/01/20 06:39:48;;;;;;;88.63;33.77;;;-0.70;99.90;;;;;;5003247;28;37544;-78
2024/01/20 06:42:14;;;;;;;97.47;37.07;;;-0.80;99.90;;;;;;5002764;28;39606;-78
2024/01/20 06:44:40;;;;;;;113.57;38.13;;;-0.80;99.90;;;;;;4983781;28;37518;-78
2024/01/20 06:47:11;;;;;;;106.97;39.23;;;-0.80;99.90;;;;;;4998993;28;37157;-77
2024/01/20 06:49:49;;;;;;;111.23;41.37;;;-0.80;99.90;;;;;;5001418;28;36346;-77
2024/01/20 06:52:16;;;;;;;111.47;41.73;;;-0.80;99.90;;;;;;4981428;28;38014;-78
2024/01/20 06:54:43;;;;;;;118.50;43.13;;;-0.80;99.90;;;;;;5001787;28;38575;-79
2024/01/20 06:57:09;;;;;;;122.70;42.23;;;-0.80;99.90;;;;;;4983886;28;37058;-78
2024/01/20 06:59:36;;;;;;;133.17;45.80;;;-0.80;99.90;;;;;;4984871;28;36257;-78
2024/01/20 07:02:49;;;;;;;111.53;40.83;;;-0.80;99.90;;;;;;5006645;28;38934;-79
2024/01/20 07:05:24;;;;;;;118.93;43.20;;;-0.80;99.90;;;;;;4964913;28;47456;-78
2024/01/20 07:08:18;;;;;;;120.37;43.30;;;-0.80;99.90;;;;;;5012489;28;38343;-79
2024/01/20 07:10:44;;;;;;;115.10;44.33;;;-0.80;99.90;;;;;;4991282;28;47066;-78
2024/01/20 07:13:10;;;;;;;110.03;40.07;;;-0.80;99.90;;;;;;5006191;28;37608;-78
2024/01/20 07:15:39;;;;;;;109.77;40.70;;;-0.80;99.90;;;;;;4969355;28;38547;-78
2024/01/20 07:18:06;;;;;;;120.00;42.03;;;-0.80;99.90;;;;;;4990940;28;37024;-78
2024/01/20 07:20:32;;;;;;;107.97;40.90;;;-0.90;99.90;;;;;;5003172;28;36423;-80
2024/01/20 07:23:45;;;;;;;108.43;40.80;;;-0.90;99.90;;;;;;4985853;28;37532;-78
2024/01/20 07:26:11;;;;;;;112.82;42.80;;;-0.90;99.90;;;;;;4979403;28;48973;-78
2024/01/20 07:28:37;;;;;;;118.07;43.20;;;-0.80;99.90;;;;;;5001441;28;38784;-79
2024/01/20 07:31:03;;;;;;;114.77;43.23;;;-0.80;99.90;;;;;;5002505;28;39377;-78
2024/01/20 07:33:30;;;;;;;122.53;43.10;;;-0.80;99.90;;;;;;4987320;28;38120;-78
2024/01/20 07:35:56;;;;;;;122.90;41.93;;;-0.80;99.90;;;;;;4992613;28;37456;-78
2024/01/20 07:38:27;;;;;;;121.33;41.07;;;-0.80;99.90;;;;;;5006697;28;36930;-78
2024/01/20 07:40:59;;;;;;;133.15;43.85;;;-0.70;99.90;;;;;;4995469;28;37216;-79
2024/01/20 07:43:40;;;;;;;125.90;43.17;;;-0.70;99.90;;;;;;4970047;28;37687;-78
2024/01/20 07:46:41;;;;;;;110.93;40.60;;;-0.70;99.90;;;;;;4983208;28;37533;-77
2024/01/20 07:49:17;;;;;;;117.88;43.83;;;-0.60;99.90;;;;;;4997387;28;38011;-79
2024/01/20 07:51:43;;;;;;;127.50;44.93;;;-0.60;99.90;;;;;;4988751;28;48729;-78
2024/01/20 07:54:10;;;;;;;126.30;47.13;;;-0.60;99.90;;;;;;4983041;28;39487;-79
2024/01/20 07:56:39;;;;;;;137.23;50.90;;;-0.50;99.90;;;;;;4987754;28;37245;-78
2024/01/20 07:59:08;;;;;;;133.47;49.73;;;-0.50;99.90;;;;;;4974010;28;38554;-78
2024/01/20 08:02:04;;;;;;;124.77;48.93;;;-0.40;99.90;;;;;;5006996;28;38100;-77
2024/01/20 08:05:14;;;;;;;136.17;50.07;;;-0.40;99.90;;;;;;4960962;28;48581;-79
2024/01/20 08:07:47;;;;;;;123.90;49.13;;;-0.40;99.90;;;;;;4977547;28;47557;-78
2024/01/20 08:10:20;;;;;;;137.93;50.13;;;-0.40;99.90;;;;;;4969988;28;37620;-77
2024/01/20 08:12:52;;;;;;;140.40;51.03;;;-0.40;99.90;;;;;;4995655;28;38079;-79
2024/01/20 08:15:23;;;;;;;127.95;49.03;;;-0.40;99.90;;;;;;4998125;28;38685;-78
2024/01/20 08:17:58;;;;;;;127.57;46.30;;;-0.40;99.90;;;;;;4985244;28;37479;-79
2024/01/20 08:20:34;;;;;;;127.53;47.73;;;-0.30;99.90;;;;;;5009361;28;39145;-76
2024/01/20 08:23:09;;;;;;;127.33;47.33;;;-0.30;99.90;;;;;;4979748;28;36845;-78
2024/01/20 08:25:41;;;;;;;130.97;48.47;;;-0.30;99.90;;;;;;4941340;28;47492;-78
2024/01/20 08:28:18;;;;;;;111.32;39.72;;;-0.40;99.90;;;;;;4989821;28;37451;-77
2024/01/20 08:30:45;;;;;;;135.13;47.13;;;-0.40;99.90;;;;;;5002515;28;37762;-78
2024/01/20 08:34:03;;;;;;;134.27;46.97;;;-0.30;99.90;;;;;;4976802;28;37767;-77
2024/01/20 08:37:02;;;;;;;121.67;45.23;;;-0.40;99.90;;;;;;4994648;28;48177;-78
2024/01/20 08:39:28;;;;;;;130.97;45.77;;;-0.40;99.90;;;;;;4973926;28;48166;-75
2024/01/20 08:41:56;;;;;;;131.60;45.30;;;-0.30;99.90;;;;;;5004484;28;37340;-77
2024/01/20 08:44:25;;;;;;;132.53;45.53;;;-0.30;99.90;;;;;;4995468;28;36995;-77
2024/01/20 08:46:51;;;;;;;122.27;46.00;;;-0.20;99.90;;;;;;5011883;28;39451;-77
2024/01/20 08:49:17;;;;;;;119.53;43.70;;;-0.20;99.90;;;;;;5011911;28;38881;-77
2024/01/20 08:51:43;;;;;;;105.23;43.27;;;-0.20;99.90;;;;;;5001953;28;36678;-77
2024/01/20 08:54:09;;;;;;;113.67;43.73;;;-0.10;99.90;;;;;;4994331;28;36636;-77
2024/01/20 08:56:35;;;;;;;110.50;42.97;;;0.00;99.90;;;;;;5002403;28;39352;-78
2024/01/20 08:59:01;;;;;;;110.37;43.00;;;0.00;99.90;;;;;;4999715;28;37804;-79
2024/01/20 09:01:28;;;;;;;109.57;41.93;;;0.00;99.90;;;;;;4989231;28;37390;-77
2024/01/20 09:03:55;;;;;;;108.23;42.20;;;0.00;99.90;;;;;;5006719;28;38176;-77
2024/01/20 09:06:21;;;;;;;108.03;42.87;;;0.00;99.90;;;;;;5002493;28;37810;-77
2024/01/20 09:09:15;;;;;;;;;;;;;;;;;;;;;
2024/01/20 09:11:42;;;;;;;94.93;38.33;;;0.00;99.90;;;;;;4969623;28;48769;-77
2024/01/20 09:14:08;;;;;;;104.47;40.80;;;0.00;99.90;;;;;;4992935;28;37248;-77
2024/01/20 09:16:34;;;;;;;101.90;39.87;;;0.00;99.90;;;;;;5006696;28;37879;-77
2024/01/20 09:19:01;;;;;;;97.30;39.33;;;0.00;99.90;;;;;;5004403;28;38966;-78
2024/01/20 09:21:27;;;;;;;96.27;38.13;;;0.10;99.90;;;;;;4992375;28;47240;-77
2024/01/20 09:23:53;;;;;;;104.40;39.00;;;0.10;99.90;;;;;;5004431;28;37183;-78
2024/01/20 09:26:19;;;;;;;106.27;39.47;;;0.10;99.90;;;;;;5010586;28;37573;-78
2024/01/20 09:28:45;;;;;;;86.37;38.17;;;0.10;99.90;;;;;;5001249;28;38518;-78
2024/01/20 09:31:11;;;;;;;97.53;37.47;;;0.20;99.90;;;;;;5024202;28;37152;-78
2024/01/20 09:33:38;;;;;;;88.50;36.43;;;0.20;99.90;;;;;;5011558;28;37682;-79
2024/01/20 09:36:04;;;;;;;106.20;39.00;;;0.20;99.90;;;;;;5020467;28;38175;-79
2024/01/20 09:38:30;;;;;;;97.50;38.67;;;0.30;99.90;;;;;;5012836;28;37874;-79
2024/01/20 09:40:58;;;;;;;93.20;36.00;;;0.20;99.90;;;;;;5019390;28;38178;-80
2024/01/20 09:43:29;;;;;;;94.73;38.43;;;0.20;99.90;;;;;;5019649;28;36855;-80
2024/01/20 09:45:58;;;;;;;87.53;36.87;;;0.30;99.90;;;;;;5024285;28;38753;-76
2024/01/20 09:48:24;;;;;;;93.57;36.67;;;0.40;99.90;;;;;;5007381;28;37337;-76
2024/01/20 09:50:50;;;;;;;89.63;36.83;;;0.30;99.90;;;;;;5010077;28;37910;-76
2024/01/20 09:53:17;;;;;;;94.93;36.00;;;0.30;99.90;;;;;;5006863;28;36106;-77
2024/01/20 09:55:45;;;;;;;92.67;36.27;;;0.30;99.90;;;;;;5007620;28;37804;-78
2024/01/20 09:58:12;;;;;;;90.33;36.03;;;0.30;99.90;;;;;;4985999;28;37656;-77
2024/01/20 10:00:39;;;;;;;88.90;35.80;;;0.40;99.90;;;;;;4989967;28;36884;-78
2024/01/20 10:03:08;;;;;;;78.90;34.43;;;0.40;99.90;;;;;;5004634;28;36671;-77
2024/01/20 10:05:35;;;;;;;89.10;37.23;;;0.40;99.90;;;;;;5012432;28;39344;-78
2024/01/20 10:08:02;;;;;;;86.63;36.83;;;0.40;99.90;;;;;;4997080;28;38500;-78
2024/01/20 10:10:31;;;;;;;86.23;36.10;;;0.40;99.90;;;;;;5021721;28;48371;-78
2024/01/20 10:12:57;;;;;;;91.53;36.77;;;0.40;99.90;;;;;;5011794;28;37594;-77
2024/01/20 10:15:26;;;;;;;94.37;35.73;;;0.40;99.90;;;;;;4990364;28;37866;-77
2024/01/20 10:17:52;;;;;;;88.03;35.77;;;0.40;99.90;;;;;;5012290;28;38409;-75
2024/01/20 10:20:23;;;;;;;91.03;36.93;;;0.50;99.90;;;;;;4989432;28;37070;-78
2024/01/20 10:22:50;;;;;;;78.33;34.30;;;0.50;99.90;;;;;;5004469;28;37272;-76
2024/01/20 10:25:19;;;;;;;83.13;36.00;;;0.60;99.90;;;;;;5001723;28;38364;-75
2024/01/20 10:27:47;;;;;;;76.97;34.40;;;0.60;99.90;;;;;;4991236;28;37626;-77
2024/01/20 10:30:17;;;;;;;84.40;36.37;;;0.70;99.90;;;;;;5008618;28;37972;-77
2024/01/20 10:32:44;;;;;;;82.80;35.83;;;0.60;99.90;;;;;;5009130;28;37273;-77
2024/01/20 10:35:11;;;;;;;80.60;36.07;;;0.60;99.90;;;;;;5008065;28;38541;-77
2024/01/20 10:37:40;;;;;;;80.30;34.30;;;0.70;99.90;;;;;;5019893;28;37806;-76
2024/01/20 10:40:11;;;;;;;77.27;33.33;;;0.70;99.90;;;;;;4985734;28;37083;-76
2024/01/20 10:42:46;;;;;;;76.10;34.90;;;0.80;99.90;;;;;;5007222;28;37781;-75
2024/01/20 10:45:17;;;;;;;84.53;35.20;;;0.80;99.90;;;;;;5009733;28;38964;-76
2024/01/20 10:47:58;;;;;;;80.30;35.63;;;0.90;99.90;;;;;;5003016;28;38882;-76
2024/01/20 10:50:26;;;;;;;82.47;37.57;;;0.80;99.90;;;;;;5008853;28;37317;-75
2024/01/20 10:52:52;;;;;;;75.43;34.57;;;0.80;99.90;;;;;;5007346;28;38281;-76
2024/01/20 10:55:19;;;;;;;77.47;34.77;;;0.70;99.90;;;;;;5008398;28;37854;-75
2024/01/20 10:57:50;;;;;;;77.83;35.70;;;0.70;99.90;;;;;;5010733;28;39196;-76
2024/01/20 11:00:17;;;;;;;82.40;37.60;;;0.70;99.90;;;;;;5006722;28;38450;-76
2024/01/20 11:02:44;;;;;;;85.07;36.30;;;0.80;99.90;;;;;;4990784;28;36460;-76
2024/01/20 11:05:25;;;;;;;79.97;35.43;;;0.80;99.90;;;;;;5007401;28;38450;-77
2024/01/20 11:08:07;;;;;;;77.93;37.33;;;0.80;99.90;;;;;;5005894;28;38382;-76
2024/01/20 11:10:45;;;;;;;77.85;36.20;;;0.80;99.90;;;;;;5008172;28;48656;-76
2024/01/20 11:13:15;;;;;;;86.10;37.83;;;0.80;99.90;;;;;;4985196;28;37796;-76
2024/01/20 11:15:49;;;;;;;78.90;37.57;;;0.70;99.90;;;;;;4990650;28;37914;-75
2024/01/20 11:18:20;;;;;;;78.13;36.27;;;0.70;99.90;;;;;;5000766;28;38458;-75
2024/01/20 11:21:03;;;;;;;68.70;34.50;;;0.80;99.90;;;;;;5009088;28;38022;-76
2024/01/20 11:23:29;;;;;;;76.73;33.03;;;0.70;99.90;;;;;;5004016;28;36884;-77
2024/01/20 11:25:57;;;;;;;68.90;32.60;;;0.60;99.90;;;;;;4999782;28;37680;-76
2024/01/20 11:28:25;;;;;;;62.37;31.90;;;0.60;99.90;;;;;;4995806;28;37682;-76
2024/01/20 11:30:51;;;;;;;64.80;30.60;;;0.70;99.90;;;;;;4978806;28;36682;-76
2024/01/20 11:33:17;;;;;;;63.10;31.13;;;0.70;99.90;;;;;;5001987;28;36162;-76
2024/01/20 11:35:44;;;;;;;113.47;33.83;;;0.80;99.90;;;;;;5001594;28;39980;-77
2024/01/20 11:38:12;;;;;;;56.77;29.83;;;0.70;99.90;;;;;;4983587;28;37648;-76
2024/01/20 11:40:39;;;;;;;60.03;28.80;;;0.60;99.90;;;;;;5003960;28;39122;-77
2024/01/20 11:43:10;;;;;;;54.60;26.90;;;0.60;99.90;;;;;;4984915;28;36366;-77
2024/01/20 11:45:40;;;;;;;48.85;27.23;;;0.60;99.90;;;;;;4990226;28;39351;-76
2024/01/20 11:48:06;;;;;;;49.77;27.90;;;0.50;99.90;;;;;;5006924;28;39619;-76
2024/01/20 11:50:34;;;;;;;52.37;27.63;;;0.50;99.90;;;;;;4987535;28;38589;-78
2024/01/20 11:53:03;;;;;;;45.10;25.57;;;0.50;99.90;;;;;;5007081;28;34763;-77
2024/01/20 11:55:29;;;;;;;43.33;22.87;;;0.40;99.90;;;;;;4982389;28;46634;-76
2024/01/20 11:57:59;;;;;;;39.73;22.97;;;0.40;99.90;;;;;;4999683;28;37241;-76
2024/01/20 12:00:25;;;;;;;42.37;23.60;;;0.50;99.90;;;;;;4999380;28;37376;-77
2024/01/20 12:02:52;;;;;;;41.70;23.63;;;0.40;99.90;;;;;;5003743;28;38232;-76
2024/01/20 12:05:19;;;;;;;39.93;23.33;;;0.60;99.90;;;;;;4987016;28;37682;-76
2024/01/20 12:07:45;;;;;;;39.70;22.03;;;0.70;99.90;;;;;;4982763;28;37265;-77
2024/01/20 12:10:15;;;;;;;43.33;22.70;;;0.70;99.90;;;;;;4986952;28;37105;-77
2024/01/20 12:12:42;;;;;;;37.90;21.60;;;0.70;99.90;;;;;;4989808;28;36424;-78
2024/01/20 12:15:09;;;;;;;35.70;20.33;;;0.80;99.90;;;;;;5003838;28;37679;-77
2024/01/20 12:17:35;;;;;;;36.37;19.83;;;0.80;99.90;;;;;;5007261;28;37037;-77
2024/01/20 12:20:02;;;;;;;32.40;19.80;;;0.90;99.90;;;;;;5013598;28;40661;-77
2024/01/20 12:22:30;;;;;;;35.17;20.23;;;0.90;99.90;;;;;;4991390;28;36375;-76
2024/01/20 12:24:59;;;;;;;37.97;20.97;;;0.90;99.90;;;;;;5002654;28;38444;-77
2024/01/20 12:27:26;;;;;;;40.33;20.27;;;0.90;99.90;;;;;;4981936;28;37468;-77
2024/01/20 12:29:52;;;;;;;37.87;20.50;;;0.80;99.90;;;;;;5002617;28;38883;-76
2024/01/20 12:32:19;;;;;;;38.30;21.07;;;0.90;99.90;;;;;;4992892;28;35974;-77
2024/01/20 12:34:45;;;;;;;41.27;22.90;;;0.90;99.90;;;;;;4999298;28;38784;-76
2024/01/20 12:37:11;;;;;;;39.23;21.77;;;0.80;99.90;;;;;;5005109;28;38315;-77